sensor_id;sensor_type;location;lat;lon;timestamp;temperature;humidity
23685;DHT22;12020;51.384;6.908;2024-03-22T00:02:17;11.50;99.90
23685;DHT22;12020;51.384;6.908;2024-03-22T00:04:50;11.50;99.90
23685;DHT22;12020;51.384;6.908;2024-03-22T00:07:15;11.50;99.90
23685;DHT22;12020;51.384;6.908;2024-03-22T00:09:41;11.50;99.90
23685;DHT22;12020;51.384;6.908;2024-03-22T00:12:08;11.50;99.90
23685;DHT22;12020;51.384;6.908;2024-03-22T00:14:34;11.50;99.90
23685;DHT22;12020;51.384;6.908;2024-03-22T00:17:06;11.50;99.90
23685;DHT22;12020;51.384;6.908;2024-03-22T00:19:32;11.50;99.90
23685;DHT22;12020;51.384;6.908;2024-03-22T00:21:59;11.50;99.90
23685;DHT22;12020;51.384;6.908;2024-03-22T00:24:25;11.50;99.90
23685;DHT22;12020;51.384;6.908;2024-03-22T00:26:50;11.50;99.90
23685;DHT22;12020;51.384;6.908;2024-03-22T00:29:18;11.50;99.90
23685;DHT22;12020;51.384;6.908;2024-03-22T00:31:44;11.50;99.90
23685;DHT22;12020;51.384;6.908;2024-03-22T00:34:10;11.50;99.90
23685;DHT22;12020;51.384;6.908;2024-03-22T00:36:41;11.50;99.90
23685;DHT22;12020;51.384;6.908;2024-03-22T00:39:07;11.40;99.90
23685;DHT22;12020;51.384;6.908;2024-03-22T00:41:33;11.40;99.90
23685;DHT22;12020;51.384;6.908;2024-03-22T00:44:05;11.40;99.90
23685;DHT22;12020;51.384;6.908;2024-03-22T00:46:34;11.50;99.90
23685;DHT22;12020;51.384;6.908;2024-03-22T00:49:02;11.40;99.90
23685;DHT22;12020;51.384;6.908;2024-03-22T00:51:28;11.40;99.90
23685;DHT22;12020;51.384;6.908;2024-03-22T00:53:54;11.50;99.90
23685;DHT22;12020;51.384;6.908;2024-03-22T00:56:20;11.50;99.90
23685;DHT22;12020;51.384;6.908;2024-03-22T00:58:47;11.50;99.90
23685;DHT22;12020;51.384;6.908;2024-03-22T01:01:16;11.50;99.90
23685;DHT22;12020;51.384;6.908;2024-03-22T01:03:42;11.50;99.90
23685;DHT22;12020;51.384;6.908;2024-03-22T01:06:08;11.40;99.90
23685;DHT22;12020;51.384;6.908;2024-03-22T01:08:34;11.50;99.90
23685;DHT22;12020;51.384;6.908;2024-03-22T01:11:00;11.50;99.90
23685;DHT22;12020;51.384;6.908;2024-03-22T01:13:26;11.50;99.90
23685;DHT22;12020;51.384;6.908;2024-03-22T01:15:52;11.50;99.90
23685;DHT22;12020;51.384;6.908;2024-03-22T01:18:22;11.50;99.90
23685;DHT22;12020;51.384;6.908;2024-03-22T01:20:48;11.50;99.90
23685;DHT22;12020;51.384;6.908;2024-03-22T01:23:14;11.50;99.90
23685;DHT22;12020;51.384;6.908;2024-03-22T01:25:40;11.50;99.90
23685;DHT22;12020;51.384;6.908;2024-03-22T01:28:07;11.60;99.90
23685;DHT22;12020;51.384;6.908;2024-03-22T01:30:34;11.50;99.90
23685;DHT22;12020;51.384;6.908;2024-03-22T01:33:03;11.60;99.90
23685;DHT22;12020;51.384;6.908;2024-03-22T01:35:29;11.60;99.90
23685;DHT22;12020;51.384;6.908;2024-03-22T01:37:57;11.60;99.90
23685;DHT22;12020;51.384;6.908;2024-03-22T01:40:27;11.60;99.90
23685;DHT22;12020;51.384;6.908;2024-03-22T01:42:57;11.60;99.90
23685;DHT22;12020;51.384;6.908;2024-03-22T01:45:24;11.60;99.90
23685;DHT22;12020;51.384;6.908;2024-03-22T01:47:55;11.60;99.90
23685;DHT22;12020;51.384;6.908;2024-03-22T01:50:22;11.60;99.90
23685;DHT22;12020;51.384;6.908;2024-03-22T01:52:49;11.60;99.90
23685;DHT22;12020;51.384;6.908;2024-03-22T01:55:16;11.60;99.90
23685;DHT22;12020;51.384;6.908;2024-03-22T01:57:42;11.60;99.90
23685;DHT22;12020;51.384;6.908;2024-03-22T02:00:09;11.60;99.90
23685;DHT22;12020;51.384;6.908;2024-03-22T02:02:35;11.60;99.90
23685;DHT22;12020;51.384;6.908;2024-03-22T02:05:22;11.70;99.90
23685;DHT22;12020;51.384;6.908;2024-03-22T02:07:51;11.70;99.90
23685;DHT22;12020;51.384;6.908;2024-03-22T02:10:17;11.70;99.90
23685;DHT22;12020;51.384;6.908;2024-03-22T02:12:46;11.70;99.90
23685;DHT22;12020;51.384;6.908;2024-03-22T02:15:12;11.60;99.90
23685;DHT22;12020;51.384;6.908;2024-03-22T02:17:41;11.70;99.90
23685;DHT22;12020;51.384;6.908;2024-03-22T02:20:07;11.70;99.90
23685;DHT22;12020;51.384;6.908;2024-03-22T02:22:33;11.70;99.90
23685;DHT22;12020;51.384;6.908;2024-03-22T02:24:59;11.70;99.90
23685;DHT22;12020;51.384;6.908;2024-03-22T02:27:29;11.70;99.90
23685;DHT22;12020;51.384;6.908;2024-03-22T02:29:58;11.70;99.90
23685;DHT22;12020;51.384;6.908;2024-03-22T02:32:25;11.70;99.90
23685;DHT22;12020;51.384;6.908;2024-03-22T02:34:51;11.80;99.90
23685;DHT22;12020;51.384;6.908;2024-03-22T02:37:17;11.80;99.90
23685;DHT22;12020;51.384;6.908;2024-03-22T02:39:44;11.80;99.90
23685;DHT22;12020;51.384;6.908;2024-03-22T02:42:14;11.80;99.90
23685;DHT22;12020;51.384;6.908;2024-03-22T02:44:41;11.70;99.90
23685;DHT22;12020;51.384;6.908;2024-03-22T02:47:09;11.70;99.90
23685;DHT22;12020;51.384;6.908;2024-03-22T02:49:38;11.70;99.90
23685;DHT22;12020;51.384;6.908;2024-03-22T02:52:04;11.80;99.90
23685;DHT22;12020;51.384;6.908;2024-03-22T02:54:31;11.80;99.90
23685;DHT22;12020;51.384;6.908;2024-03-22T02:56:59;11.80;99.90
23685;DHT22;12020;51.384;6.908;2024-03-22T02:59:28;11.70;99.90
23685;DHT22;12020;51.384;6.908;2024-03-22T03:01:54;11.70;99.90
23685;DHT22;12020;51.384;6.908;2024-03-22T03:04:25;11.70;99.90
23685;DHT22;12020;51.384;6.908;2024-03-22T03:06:51;11.70;99.90
23685;DHT22;12020;51.384;6.908;2024-03-22T03:09:17;11.70;99.90
23685;DHT22;12020;51.384;6.908;2024-03-22T03:11:42;11.70;99.90
23685;DHT22;12020;51.384;6.908;2024-03-22T03:14:08;11.70;99.90
23685;DHT22;12020;51.384;6.908;2024-03-22T03:16:35;11.70;99.90
23685;DHT22;12020;51.384;6.908;2024-03-22T03:19:01;11.60;99.90
23685;DHT22;12020;51.384;6.908;2024-03-22T03:21:27;11.70;99.90
23685;DHT22;12020;51.384;6.908;2024-03-22T03:23:54;11.60;99.90
23685;DHT22;12020;51.384;6.908;2024-03-22T03:26:22;11.60;99.90
23685;DHT22;12020;51.384;6.908;2024-03-22T03:28:48;11.60;99.90
23685;DHT22;12020;51.384;6.908;2024-03-22T03:31:14;11.60;99.90
23685;DHT22;12020;51.384;6.908;2024-03-22T03:33:40;11.60;99.90
23685;DHT22;12020;51.384;6.908;2024-03-22T03:36:08;11.60;99.90
23685;DHT22;12020;51.384;6.908;2024-03-22T03:38:38;11.60;99.90
23685;DHT22;12020;51.384;6.908;2024-03-22T03:41:04;11.60;99.90
23685;DHT22;12020;51.384;6.908;2024-03-22T03:43:30;11.60;99.90
23685;DHT22;12020;51.384;6.908;2024-03-22T03:46:01;11.60;99.90
23685;DHT22;12020;51.384;6.908;2024-03-22T03:48:27;11.60;99.90
23685;DHT22;12020;51.384;6.908;2024-03-22T03:50:57;11.60;99.90
23685;DHT22;12020;51.384;6.908;2024-03-22T03:53:28;11.50;99.90
23685;DHT22;12020;51.384;6.908;2024-03-22T03:55:55;11.50;99.90
23685;DHT22;12020;51.384;6.908;2024-03-22T03:58:25;11.50;99.90
23685;DHT22;12020;51.384;6.908;2024-03-22T04:00:51;11.50;99.90
23685;DHT22;12020;51.384;6.908;2024-03-22T04:03:16;11.50;99.90
23685;DHT22;12020;51.384;6.908;2024-03-22T04:05:43;11.50;99.90
23685;DHT22;12020;51.384;6.908;2024-03-22T04:08:11;11.50;99.90
23685;DHT22;12020;51.384;6.908;2024-03-22T04:10:37;11.40;99.90
23685;DHT22;12020;51.384;6.908;2024-03-22T04:13:04;11.50;99.90
23685;DHT22;12020;51.384;6.908;2024-03-22T04:15:34;11.40;99.90
23685;DHT22;12020;51.384;6.908;2024-03-22T04:18:00;11.40;99.90
23685;DHT22;12020;51.384;6.908;2024-03-22T04:20:28;11.40;99.90
23685;DHT22;12020;51.384;6.908;2024-03-22T04:22:54;11.40;99.90
23685;DHT22;12020;51.384;6.908;2024-03-22T04:25:19;11.40;99.90
23685;DHT22;12020;51.384;6.908;2024-03-22T04:27:47;11.40;99.90
23685;DHT22;12020;51.384;6.908;2024-03-22T04:30:15;11.30;99.90
23685;DHT22;12020;51.384;6.908;2024-03-22T04:32:41;11.30;99.90
23685;DHT22;12020;51.384;6.908;2024-03-22T04:35:07;11.30;99.90
23685;DHT22;12020;51.384;6.908;2024-03-22T04:37:35;11.30;99.90
23685;DHT22;12020;51.384;6.908;2024-03-22T04:40:05;11.30;99.90
23685;DHT22;12020;51.384;6.908;2024-03-22T04:42:32;11.30;99.90
23685;DHT22;12020;51.384;6.908;2024-03-22T04:45:00;11.30;99.90
23685;DHT22;12020;51.384;6.908;2024-03-22T04:47:26;11.30;99.90
23685;DHT22;12020;51.384;6.908;2024-03-22T04:49:54;11.30;99.90
23685;DHT22;12020;51.384;6.908;2024-03-22T04:52:21;11.30;99.90
23685;DHT22;12020;51.384;6.908;2024-03-22T04:54:46;11.30;99.90
23685;DHT22;12020;51.384;6.908;2024-03-22T04:57:13;11.30;99.90
23685;DHT22;12020;51.384;6.908;2024-03-22T04:59:39;11.30;99.90
23685;DHT22;12020;51.384;6.908;2024-03-22T05:02:04;11.30;99.90
23685;DHT22;12020;51.384;6.908;2024-03-22T05:04:35;11.30;99.90
23685;DHT22;12020;51.384;6.908;2024-03-22T05:07:01;11.30;99.90
23685;DHT22;12020;51.384;6.908;2024-03-22T05:09:28;11.30;99.90
23685;DHT22;12020;51.384;6.908;2024-03-22T05:11:53;11.30;99.90
23685;DHT22;12020;51.384;6.908;2024-03-22T05:14:19;11.30;99.90
23685;DHT22;12020;51.384;6.908;2024-03-22T05:16:49;11.40;99.90
23685;DHT22;12020;51.384;6.908;2024-03-22T05:19:15;11.30;99.90
23685;DHT22;12020;51.384;6.908;2024-03-22T05:21:43;11.40;99.90
23685;DHT22;12020;51.384;6.908;2024-03-22T05:24:10;11.40;99.90
23685;DHT22;12020;51.384;6.908;2024-03-22T05:26:36;11.40;99.90
23685;DHT22;12020;51.384;6.908;2024-03-22T05:29:07;11.40;99.90
23685;DHT22;12020;51.384;6.908;2024-03-22T05:31:46;11.40;99.90
23685;DHT22;12020;51.384;6.908;2024-03-22T05:34:13;11.40;99.90
23685;DHT22;12020;51.384;6.908;2024-03-22T05:36:40;11.40;99.90
23685;DHT22;12020;51.384;6.908;2024-03-22T05:39:13;11.40;99.90
23685;DHT22;12020;51.384;6.908;2024-03-22T05:41:40;11.50;99.90
23685;DHT22;12020;51.384;6.908;2024-03-22T05:44:08;11.50;99.90
23685;DHT22;12020;51.384;6.908;2024-03-22T05:46:35;11.50;99.90
23685;DHT22;12020;51.384;6.908;2024-03-22T05:49:02;11.50;99.90
23685;DHT22;12020;51.384;6.908;2024-03-22T05:51:29;11.50;99.90
23685;DHT22;12020;51.384;6.908;2024-03-22T05:53:56;11.50;99.90
23685;DHT22;12020;51.384;6.908;2024-03-22T05:56:22;11.50;99.90
23685;DHT22;12020;51.384;6.908;2024-03-22T05:58:49;11.50;99.90
23685;DHT22;12020;51.384;6.908;2024-03-22T06:01:15;11.50;99.90
23685;DHT22;12020;51.384;6.908;2024-03-22T06:03:41;11.50;99.90
23685;DHT22;12020;51.384;6.908;2024-03-22T06:06:07;11.50;99.90
23685;DHT22;12020;51.384;6.908;2024-03-22T06:08:33;11.50;99.90
23685;DHT22;12020;51.384;6.908;2024-03-22T06:11:02;11.60;99.90
23685;DHT22;12020;51.384;6.908;2024-03-22T06:13:29;11.60;99.90
23685;DHT22;12020;51.384;6.908;2024-03-22T06:15:57;11.60;99.90
23685;DHT22;12020;51.384;6.908;2024-03-22T06:18:23;11.60;99.90
23685;DHT22;12020;51.384;6.908;2024-03-22T06:20:52;11.60;99.90
23685;DHT22;12020;51.384;6.908;2024-03-22T06:23:21;11.60;99.90
23685;DHT22;12020;51.384;6.908;2024-03-22T06:25:54;11.60;99.90
23685;DHT22;12020;51.384;6.908;2024-03-22T06:28:20;11.70;99.90
23685;DHT22;12020;51.384;6.908;2024-03-22T06:30:46;11.70;99.90
23685;DHT22;12020;51.384;6.908;2024-03-22T06:33:12;11.70;99.90
23685;DHT22;12020;51.384;6.908;2024-03-22T06:35:38;11.80;99.90
23685;DHT22;12020;51.384;6.908;2024-03-22T06:38:06;11.90;99.90
23685;DHT22;12020;51.384;6.908;2024-03-22T06:40:32;11.90;99.90
23685;DHT22;12020;51.384;6.908;2024-03-22T06:43:00;12.00;99.90
23685;DHT22;12020;51.384;6.908;2024-03-22T06:45:26;12.10;99.90
23685;DHT22;12020;51.384;6.908;2024-03-22T06:47:51;12.10;99.90
23685;DHT22;12020;51.384;6.908;2024-03-22T06:50:17;12.10;99.90
23685;DHT22;12020;51.384;6.908;2024-03-22T06:52:44;12.10;99.90
23685;DHT22;12020;51.384;6.908;2024-03-22T06:55:10;12.10;99.90
23685;DHT22;12020;51.384;6.908;2024-03-22T06:57:39;12.10;99.90
23685;DHT22;12020;51.384;6.908;2024-03-22T07:00:09;12.10;99.90
23685;DHT22;12020;51.384;6.908;2024-03-22T07:02:35;12.10;99.90
23685;DHT22;12020;51.384;6.908;2024-03-22T07:05:02;12.20;99.90
23685;DHT22;12020;51.384;6.908;2024-03-22T07:07:29;12.20;99.90
23685;DHT22;12020;51.384;6.908;2024-03-22T07:09:56;12.20;99.90
23685;DHT22;12020;51.384;6.908;2024-03-22T07:12:22;12.30;99.90
23685;DHT22;12020;51.384;6.908;2024-03-22T07:14:50;12.30;99.90
23685;DHT22;12020;51.384;6.908;2024-03-22T07:17:16;12.50;99.90
23685;DHT22;12020;51.384;6.908;2024-03-22T07:19:42;12.60;99.90
23685;DHT22;12020;51.384;6.908;2024-03-22T07:22:08;12.60;99.90
23685;DHT22;12020;51.384;6.908;2024-03-22T07:24:38;12.70;99.90
23685;DHT22;12020;51.384;6.908;2024-03-22T07:27:04;12.70;99.90
23685;DHT22;12020;51.384;6.908;2024-03-22T07:29:30;12.80;99.90
23685;DHT22;12020;51.384;6.908;2024-03-22T07:31:58;12.80;99.90
23685;DHT22;12020;51.384;6.908;2024-03-22T07:34:24;12.90;99.90
23685;DHT22;12020;51.384;6.908;2024-03-22T07:36:50;13.00;99.90
23685;DHT22;12020;51.384;6.908;2024-03-22T07:39:16;13.10;99.90
23685;DHT22;12020;51.384;6.908;2024-03-22T07:41:43;13.10;99.90
23685;DHT22;12020;51.384;6.908;2024-03-22T07:44:09;13.20;99.90
23685;DHT22;12020;51.384;6.908;2024-03-22T07:46:35;13.20;99.90
23685;DHT22;12020;51.384;6.908;2024-03-22T07:49:01;13.30;99.90
23685;DHT22;12020;51.384;6.908;2024-03-22T07:51:29;13.30;99.90
23685;DHT22;12020;51.384;6.908;2024-03-22T07:53:55;13.40;99.90
23685;DHT22;12020;51.384;6.908;2024-03-22T07:56:21;13.40;99.90
23685;DHT22;12020;51.384;6.908;2024-03-22T07:58:48;13.40;99.90
23685;DHT22;12020;51.384;6.908;2024-03-22T08:01:14;13.40;99.90
23685;DHT22;12020;51.384;6.908;2024-03-22T08:03:42;13.40;99.90
23685;DHT22;12020;51.384;6.908;2024-03-22T08:06:09;13.40;99.90
23685;DHT22;12020;51.384;6.908;2024-03-22T08:08:36;13.50;99.90
23685;DHT22;12020;51.384;6.908;2024-03-22T08:11:01;13.50;99.90
23685;DHT22;12020;51.384;6.908;2024-03-22T08:13:27;13.60;99.90
23685;DHT22;12020;51.384;6.908;2024-03-22T08:15:53;13.60;99.90
23685;DHT22;12020;51.384;6.908;2024-03-22T08:18:20;13.70;99.90
23685;DHT22;12020;51.384;6.908;2024-03-22T08:20:50;13.70;99.90
23685;DHT22;12020;51.384;6.908;2024-03-22T08:23:16;13.80;99.90
23685;DHT22;12020;51.384;6.908;2024-03-22T08:25:44;13.80;99.90
23685;DHT22;12020;51.384;6.908;2024-03-22T08:28:12;13.90;99.90
23685;DHT22;12020;51.384;6.908;2024-03-22T08:30:45;13.90;99.90
23685;DHT22;12020;51.384;6.908;2024-03-22T08:33:11;13.90;99.90
23685;DHT22;12020;51.384;6.908;2024-03-22T08:35:37;13.90;99.90
23685;DHT22;12020;51.384;6.908;2024-03-22T08:38:04;14.00;99.90
23685;DHT22;12020;51.384;6.908;2024-03-22T08:40:38;14.00;99.90
23685;DHT22;12020;51.384;6.908;2024-03-22T08:43:05;14.00;99.90
23685;DHT22;12020;51.384;6.908;2024-03-22T08:45:34;14.00;99.90
23685;DHT22;12020;51.384;6.908;2024-03-22T08:48:00;14.00;99.90
23685;DHT22;12020;51.384;6.908;2024-03-22T08:50:26;14.10;99.90
23685;DHT22;12020;51.384;6.908;2024-03-22T08:52:52;14.10;99.90
23685;DHT22;12020;51.384;6.908;2024-03-22T08:55:19;14.10;99.90
23685;DHT22;12020;51.384;6.908;2024-03-22T08:57:45;14.20;99.90
23685;DHT22;12020;51.384;6.908;2024-03-22T09:00:11;14.20;99.90
23685;DHT22;12020;51.384;6.908;2024-03-22T09:02:37;14.20;99.90
23685;DHT22;12020;51.384;6.908;2024-03-22T09:05:05;14.30;99.90
23685;DHT22;12020;51.384;6.908;2024-03-22T09:07:33;14.30;99.90
23685;DHT22;12020;51.384;6.908;2024-03-22T09:09:58;14.30;99.90
23685;DHT22;12020;51.384;6.908;2024-03-22T09:12:24;14.30;99.90
23685;DHT22;12020;51.384;6.908;2024-03-22T09:14:50;14.40;99.90
23685;DHT22;12020;51.384;6.908;2024-03-22T09:17:16;14.40;99.90
23685;DHT22;12020;51.384;6.908;2024-03-22T09:19:43;14.40;99.90
23685;DHT22;12020;51.384;6.908;2024-03-22T09:22:09;14.50;99.90
23685;DHT22;12020;51.384;6.908;2024-03-22T09:24:35;14.50;99.90
23685;DHT22;12020;51.384;6.908;2024-03-22T09:27:01;14.50;99.90
23685;DHT22;12020;51.384;6.908;2024-03-22T09:29:30;14.60;99.90
23685;DHT22;12020;51.384;6.908;2024-03-22T09:31:58;14.70;99.90
23685;DHT22;12020;51.384;6.908;2024-03-22T09:34:27;14.90;99.90
23685;DHT22;12020;51.384;6.908;2024-03-22T09:36:59;15.00;99.90
23685;DHT22;12020;51.384;6.908;2024-03-22T09:39:25;15.10;99.90
23685;DHT22;12020;51.384;6.908;2024-03-22T09:41:56;15.20;99.90
23685;DHT22;12020;51.384;6.908;2024-03-22T09:44:27;15.20;99.90
23685;DHT22;12020;51.384;6.908;2024-03-22T09:46:53;15.30;99.90
23685;DHT22;12020;51.384;6.908;2024-03-22T09:49:21;15.30;99.90
23685;DHT22;12020;51.384;6.908;2024-03-22T09:51:51;15.20;99.90
23685;DHT22;12020;51.384;6.908;2024-03-22T09:54:17;15.20;99.90
23685;DHT22;12020;51.384;6.908;2024-03-22T09:56:48;15.20;99.90
23685;DHT22;12020;51.384;6.908;2024-03-22T09:59:21;15.20;99.90
23685;DHT22;12020;51.384;6.908;2024-03-22T10:01:48;15.10;99.90
23685;DHT22;12020;51.384;6.908;2024-03-22T10:04:16;15.10;99.90
23685;DHT22;12020;51.384;6.908;2024-03-22T10:06:44;15.10;99.90
23685;DHT22;12020;51.384;6.908;2024-03-22T10:09:10;15.20;99.90
23685;DHT22;12020;51.384;6.908;2024-03-22T10:11:36;15.20;99.90
23685;DHT22;12020;51.384;6.908;2024-03-22T10:14:04;15.20;99.90
23685;DHT22;12020;51.384;6.908;2024-03-22T10:16:36;15.20;99.90
23685;DHT22;12020;51.384;6.908;2024-03-22T10:19:02;15.20;99.90
23685;DHT22;12020;51.384;6.908;2024-03-22T10:21:28;15.20;99.90
23685;DHT22;12020;51.384;6.908;2024-03-22T10:23:55;15.20;99.90
23685;DHT22;12020;51.384;6.908;2024-03-22T10:26:21;15.30;99.90
23685;DHT22;12020;51.384;6.908;2024-03-22T10:28:47;15.30;99.90
23685;DHT22;12020;51.384;6.908;2024-03-22T10:31:13;15.20;99.90
23685;DHT22;12020;51.384;6.908;2024-03-22T10:33:45;15.20;99.90
23685;DHT22;12020;51.384;6.908;2024-03-22T10:36:11;15.20;99.90
23685;DHT22;12020;51.384;6.908;2024-03-22T10:38:39;15.20;99.90
23685;DHT22;12020;51.384;6.908;2024-03-22T10:41:12;15.30;99.90
23685;DHT22;12020;51.384;6.908;2024-03-22T10:43:38;15.20;99.90
23685;DHT22;12020;51.384;6.908;2024-03-22T10:46:04;15.20;99.90
23685;DHT22;12020;51.384;6.908;2024-03-22T10:48:33;15.20;99.90
23685;DHT22;12020;51.384;6.908;2024-03-22T10:51:00;15.20;99.90
23685;DHT22;12020;51.384;6.908;2024-03-22T10:53:28;15.20;99.90
23685;DHT22;12020;51.384;6.908;2024-03-22T10:55:57;15.20;99.90
23685;DHT22;12020;51.384;6.908;2024-03-22T10:58:28;15.20;99.90
23685;DHT22;12020;51.384;6.908;2024-03-22T11:00:55;15.30;99.90
23685;DHT22;12020;51.384;6.908;2024-03-22T11:03:25;15.30;99.90
23685;DHT22;12020;51.384;6.908;2024-03-22T11:05:59;15.30;99.90
23685;DHT22;12020;51.384;6.908;2024-03-22T11:08:27;15.30;99.90
23685;DHT22;12020;51.384;6.908;2024-03-22T11:11:11;15.30;99.90
23685;DHT22;12020;51.384;6.908;2024-03-22T11:13:40;15.40;99.90
23685;DHT22;12020;51.384;6.908;2024-03-22T11:16:09;15.50;99.90
23685;DHT22;12020;51.384;6.908;2024-03-22T11:18:35;15.50;99.90
23685;DHT22;12020;51.384;6.908;2024-03-22T11:21:03;15.50;99.90
23685;DHT22;12020;51.384;6.908;2024-03-22T11:23:29;15.50;99.90
23685;DHT22;12020;51.384;6.908;2024-03-22T11:25:56;15.50;99.90
23685;DHT22;12020;51.384;6.908;2024-03-22T11:28:23;15.60;99.90
23685;DHT22;12020;51.384;6.908;2024-03-22T11:30:49;15.60;99.90
23685;DHT22;12020;51.384;6.908;2024-03-22T11:33:15;15.60;99.90
23685;DHT22;12020;51.384;6.908;2024-03-22T11:35:41;15.60;99.90
23685;DHT22;12020;51.384;6.908;2024-03-22T11:38:08;15.60;99.90
23685;DHT22;12020;51.384;6.908;2024-03-22T11:40:34;15.60;99.90
23685;DHT22;12020;51.384;6.908;2024-03-22T11:43:01;15.60;99.90
23685;DHT22;12020;51.384;6.908;2024-03-22T11:45:30;15.50;99.90
23685;DHT22;12020;51.384;6.908;2024-03-22T11:48:02;15.50;99.90
23685;DHT22;12020;51.384;6.908;2024-03-22T11:50:28;15.40;99.90
23685;DHT22;12020;51.384;6.908;2024-03-22T11:52:54;15.40;99.90
23685;DHT22;12020;51.384;6.908;2024-03-22T11:55:21;15.40;99.90
23685;DHT22;12020;51.384;6.908;2024-03-22T11:57:52;15.40;99.90
23685;DHT22;12020;51.384;6.908;2024-03-22T12:00:19;15.40;99.90
23685;DHT22;12020;51.384;6.908;2024-03-22T12:02:45;15.40;99.90
23685;DHT22;12020;51.384;6.908;2024-03-22T12:05:12;15.30;99.90
23685;DHT22;12020;51.384;6.908;2024-03-22T12:07:39;15.20;99.90
23685;DHT22;12020;51.384;6.908;2024-03-22T12:10:07;15.20;99.90
23685;DHT22;12020;51.384;6.908;2024-03-22T12:12:33;15.10;99.90
23685;DHT22;12020;51.384;6.908;2024-03-22T12:15:01;15.10;99.90
23685;DHT22;12020;51.384;6.908;2024-03-22T12:17:27;15.00;99.90
23685;DHT22;12020;51.384;6.908;2024-03-22T12:19:53;14.90;99.90
23685;DHT22;12020;51.384;6.908;2024-03-22T12:22:28;14.80;99.90
23685;DHT22;12020;51.384;6.908;2024-03-22T12:24:54;14.80;99.90
23685;DHT22;12020;51.384;6.908;2024-03-22T12:27:26;14.80;99.90
23685;DHT22;12020;51.384;6.908;2024-03-22T12:29:54;14.80;99.90
23685;DHT22;12020;51.384;6.908;2024-03-22T12:32:25;14.70;99.90
23685;DHT22;12020;51.384;6.908;2024-03-22T12:34:52;14.70;99.90
23685;DHT22;12020;51.384;6.908;2024-03-22T12:37:18;14.60;99.90
23685;DHT22;12020;51.384;6.908;2024-03-22T12:39:44;14.60;99.90
23685;DHT22;12020;51.384;6.908;2024-03-22T12:42:10;14.40;99.90
23685;DHT22;12020;51.384;6.908;2024-03-22T12:44:36;14.30;99.90
23685;DHT22;12020;51.384;6.908;2024-03-22T12:47:03;14.30;99.90
23685;DHT22;12020;51.384;6.908;2024-03-22T12:49:30;14.20;99.90
23685;DHT22;12020;51.384;6.908;2024-03-22T12:51:57;14.20;99.90
23685;DHT22;12020;51.384;6.908;2024-03-22T12:54:22;14.20;99.90
23685;DHT22;12020;51.384;6.908;2024-03-22T12:56:48;14.10;99.90
23685;DHT22;12020;51.384;6.908;2024-03-22T12:59:14;14.00;99.90
23685;DHT22;12020;51.384;6.908;2024-03-22T13:01:40;14.00;99.90
23685;DHT22;12020;51.384;6.908;2024-03-22T13:04:06;13.90;99.90
23685;DHT22;12020;51.384;6.908;2024-03-22T13:06:31;13.90;99.90
23685;DHT22;12020;51.384;6.908;2024-03-22T13:09:00;13.80;99.90
23685;DHT22;12020;51.384;6.908;2024-03-22T13:11:25;13.80;99.90
23685;DHT22;12020;51.384;6.908;2024-03-22T13:13:52;13.80;99.90
23685;DHT22;12020;51.384;6.908;2024-03-22T13:16:18;13.80;99.90
23685;DHT22;12020;51.384;6.908;2024-03-22T13:18:44;13.80;99.90
23685;DHT22;12020;51.384;6.908;2024-03-22T13:21:10;13.90;99.90
23685;DHT22;12020;51.384;6.908;2024-03-22T13:23:36;13.80;99.90
23685;DHT22;12020;51.384;6.908;2024-03-22T13:26:04;13.70;99.90
23685;DHT22;12020;51.384;6.908;2024-03-22T13:28:30;13.70;99.90
23685;DHT22;12020;51.384;6.908;2024-03-22T13:31:01;13.70;99.90
23685;DHT22;12020;51.384;6.908;2024-03-22T13:33:29;13.70;99.90
23685;DHT22;12020;51.384;6.908;2024-03-22T13:35:56;13.80;99.90
23685;DHT22;12020;51.384;6.908;2024-03-22T13:38:21;13.70;99.90
23685;DHT22;12020;51.384;6.908;2024-03-22T13:40:54;13.70;99.90
23685;DHT22;12020;51.384;6.908;2024-03-22T13:43:20;13.60;99.90
23685;DHT22;12020;51.384;6.908;2024-03-22T13:45:46;13.50;99.90
23685;DHT22;12020;51.384;6.908;2024-03-22T13:48:14;13.50;99.90
23685;DHT22;12020;51.384;6.908;2024-03-22T13:50:40;13.50;99.90
23685;DHT22;12020;51.384;6.908;2024-03-22T13:53:06;13.50;99.90
23685;DHT22;12020;51.384;6.908;2024-03-22T13:55:35;13.50;99.90
23685;DHT22;12020;51.384;6.908;2024-03-22T13:58:00;13.50;99.90
23685;DHT22;12020;51.384;6.908;2024-03-22T14:00:27;13.40;99.90
23685;DHT22;12020;51.384;6.908;2024-03-22T14:02:55;13.40;99.90
23685;DHT22;12020;51.384;6.908;2024-03-22T14:05:21;13.40;99.90
23685;DHT22;12020;51.384;6.908;2024-03-22T14:07:50;13.40;99.90
23685;DHT22;12020;51.384;6.908;2024-03-22T14:10:16;13.40;99.90
23685;DHT22;12020;51.384;6.908;2024-03-22T14:12:43;13.30;99.90
23685;DHT22;12020;51.384;6.908;2024-03-22T14:15:09;13.10;99.90
23685;DHT22;12020;51.384;6.908;2024-03-22T14:17:35;13.00;99.90
23685;DHT22;12020;51.384;6.908;2024-03-22T14:20:00;13.00;99.90
23685;DHT22;12020;51.384;6.908;2024-03-22T14:22:26;13.00;99.90
23685;DHT22;12020;51.384;6.908;2024-03-22T14:24:51;12.90;99.90
23685;DHT22;12020;51.384;6.908;2024-03-22T14:27:17;12.90;99.90
23685;DHT22;12020;51.384;6.908;2024-03-22T14:29:45;12.90;99.90
23685;DHT22;12020;51.384;6.908;2024-03-22T14:32:11;12.80;99.90
23685;DHT22;12020;51.384;6.908;2024-03-22T14:34:37;12.80;99.90
23685;DHT22;12020;51.384;6.908;2024-03-22T14:37:03;12.90;99.90
23685;DHT22;12020;51.384;6.908;2024-03-22T14:39:29;12.90;99.90
23685;DHT22;12020;51.384;6.908;2024-03-22T14:41:55;12.80;99.90
23685;DHT22;12020;51.384;6.908;2024-03-22T14:44:20;12.90;99.90
23685;DHT22;12020;51.384;6.908;2024-03-22T14:46:46;12.90;99.90
23685;DHT22;12020;51.384;6.908;2024-03-22T14:49:12;12.90;99.90
23685;DHT22;12020;51.384;6.908;2024-03-22T14:51:38;12.90;99.90
23685;DHT22;12020;51.384;6.908;2024-03-22T14:54:04;12.90;99.90
23685;DHT22;12020;51.384;6.908;2024-03-22T14:56:30;12.90;99.90
23685;DHT22;12020;51.384;6.908;2024-03-22T14:58:55;12.70;99.90
23685;DHT22;12020;51.384;6.908;2024-03-22T15:01:23;12.60;99.90
23685;DHT22;12020;51.384;6.908;2024-03-22T15:03:50;12.50;99.90
23685;DHT22;12020;51.384;6.908;2024-03-22T15:06:17;12.30;99.90
23685;DHT22;12020;51.384;6.908;2024-03-22T15:08:42;12.30;99.90
23685;DHT22;12020;51.384;6.908;2024-03-22T15:11:08;12.30;99.90
23685;DHT22;12020;51.384;6.908;2024-03-22T15:13:34;12.30;99.90
23685;DHT22;12020;51.384;6.908;2024-03-22T15:16:00;12.40;99.90
23685;DHT22;12020;51.384;6.908;2024-03-22T15:18:27;12.40;99.90
23685;DHT22;12020;51.384;6.908;2024-03-22T15:20:53;12.40;99.90
23685;DHT22;12020;51.384;6.908;2024-03-22T15:23:18;12.30;99.90
23685;DHT22;12020;51.384;6.908;2024-03-22T15:25:47;12.30;99.90
23685;DHT22;12020;51.384;6.908;2024-03-22T15:28:16;12.30;99.90
23685;DHT22;12020;51.384;6.908;2024-03-22T15:30:41;12.30;99.90